Time;durP1;ratioP1;P1;durP2;ratioP2;P2;SDS_P1;SDS_P2;PMS_P1;PMS_P2;Temp;Humidity;BMP_temperature;BMP_pressure;BME280_temperature;BME280_humidity;BME280_pressure;Samples;Min_cycle;Max_cycle;Signal;HPM_P1;HPM_P2
2021/05/14 00:00:50;;;;;;;16.45;14.85;;;14.90;84.00;;;;;;5093098;28;20481;-91
2021/05/14 00:03:16;;;;;;;16.25;14.40;;;14.90;83.80;;;;;;5093192;28;20024;-91
2021/05/14 00:05:42;;;;;;;16.77;15.07;;;14.90;83.70;;;;;;5092913;28;20035;-91
2021/05/14 00:08:08;;;;;;;17.88;15.70;;;14.90;83.70;;;;;;5093651;28;20028;-91
2021/05/14 00:10:38;;;;;;;15.35;13.75;;;14.90;84.20;;;;;;5108451;27;20027;-89
2021/05/14 00:13:04;;;;;;;13.65;12.23;;;14.90;84.40;;;;;;5116874;27;20027;-91
2021/05/14 00:15:30;;;;;;;15.20;11.48;;;15.00;84.40;;;;;;5116603;27;20471;-89
2021/05/14 00:17:56;;;;;;;15.13;10.85;;;14.90;84.40;;;;;;5116721;27;20043;-91
2021/05/14 00:20:21;;;;;;;11.48;10.38;;;14.90;84.40;;;;;;5104841;28;20024;-91
2021/05/14 00:22:47;;;;;;;12.05;10.57;;;14.90;84.50;;;;;;5095869;28;20041;-91
2021/05/14 00:25:13;;;;;;;11.60;10.35;;;14.90;84.60;;;;;;5086018;28;20020;-91
2021/05/14 00:27:39;;;;;;;13.95;10.30;;;14.90;85.10;;;;;;5078145;28;20031;-91
2021/05/14 00:30:08;;;;;;;10.20;9.07;;;14.90;85.40;;;;;;5086720;28;20024;-90
2021/05/14 00:32:35;;;;;;;10.73;8.93;;;14.90;85.50;;;;;;5075576;28;20101;-91
2021/05/14 00:35:01;;;;;;;9.25;8.30;;;14.90;86.20;;;;;;5089784;27;20067;-91
2021/05/14 00:37:27;;;;;;;9.70;8.50;;;14.90;85.50;;;;;;5121832;28;20032;-91
2021/05/14 00:39:53;;;;;;;12.65;9.23;;;14.90;85.40;;;;;;5098648;27;20030;-91
2021/05/14 00:42:19;;;;;;;10.23;7.78;;;14.90;85.50;;;;;;5134891;27;20034;-91
2021/05/14 00:44:47;;;;;;;8.10;7.32;;;14.90;85.40;;;;;;5102648;28;20363;-88
2021/05/14 00:47:18;;;;;;;12.77;9.48;;;14.90;85.30;;;;;;5075676;28;20484;-90
2021/05/14 00:49:45;;;;;;;8.60;7.70;;;14.90;85.40;;;;;;5087686;27;20011;-90
2021/05/14 00:52:20;;;;;;;11.82;9.05;;;14.90;85.40;;;;;;5115886;27;20027;-91
2021/05/14 00:54:47;;;;;;;11.55;10.30;;;14.90;85.60;;;;;;5105436;28;20020;-91
2021/05/14 00:57:15;;;;;;;12.00;10.80;;;14.80;85.60;;;;;;5092086;28;20040;-89
2021/05/14 00:59:43;;;;;;;9.93;8.93;;;14.90;85.70;;;;;;5104821;27;20368;-90
2021/05/14 01:02:09;;;;;;;12.07;9.88;;;14.90;85.70;;;;;;5115628;27;20106;-91
2021/05/14 01:04:36;;;;;;;10.02;9.02;;;14.80;85.60;;;;;;5104059;28;20012;-90
2021/05/14 01:07:03;;;;;;;10.70;9.60;;;14.80;85.60;;;;;;5092141;28;20036;-90
2021/05/14 01:09:28;;;;;;;11.13;9.75;;;14.80;85.70;;;;;;5091897;28;20028;-91
2021/05/14 01:11:55;;;;;;;12.20;9.85;;;14.80;86.10;;;;;;5091869;28;20028;-91
2021/05/14 01:14:20;;;;;;;11.82;10.60;;;14.80;85.90;;;;;;5093233;28;20036;-89
2021/05/14 01:16:46;;;;;;;12.75;11.38;;;14.80;86.20;;;;;;5089431;27;20039;-91
2021/05/14 01:19:12;;;;;;;14.68;11.23;;;14.80;86.60;;;;;;5115686;27;20033;-91
2021/05/14 01:21:38;;;;;;;13.73;10.85;;;14.70;86.90;;;;;;5115753;27;20106;-91
2021/05/14 01:24:05;;;;;;;12.90;11.60;;;14.80;87.00;;;;;;5115443;27;20059;-91
2021/05/14 01:26:31;;;;;;;13.50;10.98;;;14.70;87.30;;;;;;5096156;28;20493;-90
2021/05/14 01:28:57;;;;;;;10.60;9.50;;;14.70;87.50;;;;;;5091950;28;20132;-90
2021/05/14 01:31:23;;;;;;;10.32;9.02;;;14.70;87.40;;;;;;5134972;27;20460;-91
2021/05/14 01:33:49;;;;;;;11.57;8.48;;;14.70;87.20;;;;;;5140439;27;20011;-90
2021/05/14 01:36:16;;;;;;;10.77;8.18;;;14.70;87.10;;;;;;5114250;28;20084;-90
2021/05/14 01:38:42;;;;;;;9.15;7.97;;;14.70;87.10;;;;;;5091105;28;20503;-91
2021/05/14 01:41:08;;;;;;;10.30;8.20;;;14.60;87.00;;;;;;5104319;27;20031;-91
2021/05/14 01:43:35;;;;;;;9.27;7.43;;;14.60;87.20;;;;;;5115421;27;20495;-91
2021/05/14 01:46:05;;;;;;;9.27;7.10;;;14.60;87.40;;;;;;5098093;28;20032;-91
2021/05/14 01:48:31;;;;;;;11.27;7.38;;;14.60;87.40;;;;;;5091367;28;20032;-92
2021/05/14 01:51:04;;;;;;;7.05;6.35;;;14.60;87.50;;;;;;5112716;27;20035;-93
2021/05/14 01:53:30;;;;;;;7.53;6.53;;;14.50;87.20;;;;;;5102471;28;20038;-92
2021/05/14 01:55:56;;;;;;;10.35;7.20;;;14.50;87.20;;;;;;5116369;27;20016;-90
2021/05/14 01:58:22;;;;;;;10.82;8.10;;;14.40;87.40;;;;;;5117599;27;20043;-92
2021/05/14 02:00:48;;;;;;;14.70;10.10;;;14.40;88.20;;;;;;5101448;28;20020;-91
2021/05/14 02:03:13;;;;;;;15.60;11.23;;;14.40;88.50;;;;;;5095813;28;20035;-92
2021/05/14 02:05:39;;;;;;;14.80;10.02;;;14.30;88.80;;;;;;5124614;27;20482;-91
2021/05/14 02:08:05;;;;;;;13.68;9.60;;;14.30;89.20;;;;;;5117936;27;20122;-92
2021/05/14 02:10:31;;;;;;;10.43;8.57;;;14.30;89.40;;;;;;5102707;28;20008;-92
2021/05/14 02:12:56;;;;;;;11.55;9.15;;;14.20;89.80;;;;;;5098281;28;20024;-92
2021/05/14 02:15:22;;;;;;;12.32;9.43;;;14.30;90.40;;;;;;5099728;27;20047;-93
2021/05/14 02:17:48;;;;;;;12.30;9.35;;;14.20;91.00;;;;;;5114687;27;20442;-92
2021/05/14 02:20:14;;;;;;;12.20;9.00;;;14.20;90.80;;;;;;5101261;28;20028;-92
2021/05/14 02:22:40;;;;;;;13.05;9.35;;;14.20;91.00;;;;;;5090591;28;20028;-92
2021/05/14 02:25:07;;;;;;;9.88;8.38;;;14.10;91.10;;;;;;5104276;28;20026;-92
2021/05/14 02:27:33;;;;;;;14.93;9.73;;;14.10;91.30;;;;;;5116427;28;20023;-92
2021/05/14 02:30:04;;;;;;;15.10;10.60;;;14.10;91.60;;;;;;5108648;28;20444;-91
2021/05/14 02:32:30;;;;;;;16.55;9.63;;;14.10;92.20;;;;;;5113970;28;20077;-91
2021/05/14 02:34:56;;;;;;;12.23;8.85;;;14.00;92.40;;;;;;5115146;28;20047;-91
2021/05/14 02:37:21;;;;;;;13.05;8.25;;;14.00;92.40;;;;;;5114701;28;20100;-92
2021/05/14 02:39:47;;;;;;;14.95;8.20;;;14.00;92.70;;;;;;5105229;28;20024;-92
2021/05/14 02:42:13;;;;;;;10.88;7.50;;;14.00;93.10;;;;;;5090514;28;20035;-90
2021/05/14 02:44:39;;;;;;;12.98;7.95;;;14.00;93.00;;;;;;5088129;28;20072;-92
2021/05/14 02:47:07;;;;;;;12.13;8.05;;;14.00;93.20;;;;;;5092495;28;20032;-90
2021/05/14 02:49:33;;;;;;;9.27;7.18;;;14.00;93.30;;;;;;5078558;28;20396;-91
2021/05/14 02:51:59;;;;;;;10.15;7.78;;;14.00;93.30;;;;;;5093856;28;20032;-92
2021/05/14 02:54:24;;;;;;;14.45;8.88;;;14.10;93.60;;;;;;5079945;28;20422;-92
2021/05/14 02:56:50;;;;;;;11.05;8.25;;;14.10;94.00;;;;;;5095631;28;20036;-91
2021/05/14 02:59:16;;;;;;;15.10;9.05;;;14.10;94.20;;;;;;5097340;28;20111;-91
2021/05/14 03:01:41;;;;;;;13.13;8.57;;;14.10;94.60;;;;;;5115681;28;20015;-90
2021/05/14 03:04:07;;;;;;;14.55;9.20;;;14.10;94.70;;;;;;5115685;28;20023;-91
2021/05/14 03:06:33;;;;;;;10.63;7.80;;;14.00;95.00;;;;;;5093590;28;20016;-91
2021/05/14 03:08:59;;;;;;;11.60;7.75;;;14.00;95.40;;;;;;5098725;28;20036;-92
2021/05/14 03:11:25;;;;;;;9.95;7.60;;;14.00;95.50;;;;;;5100053;28;20032;-91
2021/05/14 03:13:51;;;;;;;11.05;7.35;;;14.10;95.90;;;;;;5103088;28;20054;-91
2021/05/14 03:16:17;;;;;;;8.07;6.80;;;14.10;96.30;;;;;;5108190;28;20031;-91
2021/05/14 03:18:42;;;;;;;10.68;6.93;;;14.10;96.60;;;;;;5080261;28;20202;-92
2021/05/14 03:21:08;;;;;;;9.25;6.95;;;14.10;96.80;;;;;;5108981;28;20019;-92
2021/05/14 03:23:34;;;;;;;9.15;6.75;;;14.10;96.80;;;;;;5119995;28;20055;-92
2021/05/14 03:26:00;;;;;;;7.95;6.22;;;14.20;97.00;;;;;;5083612;28;20030;-92
2021/05/14 03:28:25;;;;;;;9.75;6.63;;;14.20;97.20;;;;;;5078215;28;20032;-92
2021/05/14 03:30:52;;;;;;;8.30;5.97;;;14.20;97.30;;;;;;5115408;27;20015;-91
2021/05/14 03:33:21;;;;;;;8.65;5.45;;;14.30;97.20;;;;;;5121863;27;20039;-91
2021/05/14 03:35:51;;;;;;;8.32;5.53;;;14.30;97.20;;;;;;5119738;27;20047;-92
2021/05/14 03:38:17;;;;;;;6.97;5.13;;;14.40;97.10;;;;;;5118792;27;20049;-92
2021/05/14 03:40:44;;;;;;;9.73;5.18;;;14.50;96.90;;;;;;5118327;27;20023;-90
2021/05/14 03:43:10;;;;;;;7.97;4.88;;;14.50;96.70;;;;;;5120170;27;20062;-92
2021/05/14 03:45:36;;;;;;;9.73;5.22;;;14.60;96.30;;;;;;5102097;28;20054;-92
2021/05/14 03:48:17;;;;;;;10.77;5.35;;;14.70;96.00;;;;;;5096655;28;20097;-92
2021/05/14 03:50:43;;;;;;;10.35;5.85;;;14.70;95.70;;;;;;5083576;28;20163;-91
2021/05/14 03:53:09;;;;;;;7.32;5.50;;;14.80;95.50;;;;;;5100969;27;20515;-90
2021/05/14 03:55:34;;;;;;;8.30;6.32;;;14.80;95.40;;;;;;5100987;28;20066;-91
2021/05/14 03:58:00;;;;;;;11.45;7.18;;;14.90;95.20;;;;;;5096224;28;20127;-92
2021/05/14 04:00:26;;;;;;;7.68;6.57;;;15.00;94.80;;;;;;5084094;28;20024;-90
2021/05/14 04:02:52;;;;;;;10.25;7.45;;;15.00;94.50;;;;;;5076860;28;20031;-91
2021/05/14 04:05:19;;;;;;;11.55;8.40;;;15.10;94.10;;;;;;5098389;27;20064;-91
2021/05/14 04:07:44;;;;;;;12.30;9.20;;;15.10;93.90;;;;;;5117450;27;20122;-91
2021/05/14 04:15:10;;;;;;;12.63;10.63;;;15.20;94.00;;;;;;5108372;28;20030;-91
2021/05/14 04:17:37;;;;;;;12.30;11.05;;;15.30;94.40;;;;;;5095674;28;20051;-92
2021/05/14 04:20:04;;;;;;;13.90;11.32;;;15.20;94.70;;;;;;5094510;27;20023;-91
2021/05/14 04:22:31;;;;;;;16.05;12.52;;;15.30;95.30;;;;;;5119325;27;20031;-92
2021/05/14 04:24:57;;;;;;;14.13;11.20;;;15.30;95.60;;;;;;5106563;28;20027;-92
2021/05/14 04:27:23;;;;;;;12.70;11.18;;;15.50;95.80;;;;;;5097794;28;20028;-92
2021/05/14 04:29:49;;;;;;;15.25;13.52;;;15.70;95.70;;;;;;5088662;28;20103;-88
2021/05/14 04:32:15;;;;;;;16.90;14.23;;;16.00;95.20;;;;;;5093387;28;20030;-91
2021/05/14 04:34:41;;;;;;;17.17;14.25;;;16.20;94.30;;;;;;5074106;28;20028;-92
2021/05/14 04:37:07;;;;;;;15.52;13.75;;;16.40;93.60;;;;;;5093675;28;20043;-91
2021/05/14 04:39:33;;;;;;;14.65;12.40;;;16.50;92.70;;;;;;5092015;28;20066;-93
2021/05/14 04:41:59;;;;;;;13.43;11.07;;;16.60;92.20;;;;;;5074745;28;20045;-91
2021/05/14 04:44:25;;;;;;;20.20;10.00;;;16.70;91.80;;;;;;5076299;28;20432;-90
2021/05/14 04:46:54;;;;;;;12.38;9.45;;;16.70;91.10;;;;;;5076493;28;20054;-91
2021/05/14 04:49:20;;;;;;;11.95;8.85;;;16.60;90.80;;;;;;5081060;28;20027;-91
2021/05/14 04:51:45;;;;;;;9.13;7.38;;;16.70;91.10;;;;;;5117796;28;20057;-91
2021/05/14 04:54:11;;;;;;;13.20;6.78;;;16.80;91.80;;;;;;5098364;27;20074;-90
2021/05/14 04:56:37;;;;;;;7.82;6.40;;;17.00;92.20;;;;;;5116747;27;20122;-92
2021/05/14 04:59:03;;;;;;;9.18;5.75;;;17.40;92.20;;;;;;5117327;27;20091;-90
2021/05/14 05:01:30;;;;;;;8.82;5.82;;;17.80;91.50;;;;;;5117345;27;20022;-90
2021/05/14 05:03:58;;;;;;;6.03;5.00;;;18.10;90.60;;;;;;5114717;27;20035;-91
2021/05/14 05:06:23;;;;;;;6.75;4.40;;;18.50;90.30;;;;;;5105045;27;20071;-92
2021/05/14 05:08:52;;;;;;;6.70;4.78;;;18.90;88.30;;;;;;5088192;28;20103;-93
2021/05/14 05:11:20;;;;;;;10.77;4.63;;;19.30;83.80;;;;;;5099957;28;20032;-92
2021/05/14 05:13:46;;;;;;;10.20;3.90;;;19.60;82.30;;;;;;5088433;27;20492;-92
2021/05/14 05:16:15;;;;;;;7.47;4.80;;;19.90;81.00;;;;;;5105953;28;20039;-92
2021/05/14 05:18:41;;;;;;;7.13;4.00;;;20.40;78.40;;;;;;5093301;28;20048;-92
2021/05/14 05:21:07;;;;;;;7.10;4.20;;;20.80;76.10;;;;;;5083171;22;20033;-91
2021/05/14 05:26:32;;;;;;;6.70;4.70;;;21.40;69.90;;;;;;5046650;28;20052;-89
2021/05/14 05:31:39;;;;;;;14.52;5.50;;;21.20;68.20;;;;;;5039868;28;20045;-93
2021/05/14 05:34:33;;;;;;;6.93;5.18;;;21.10;66.60;;;;;;5043999;28;20036;-93
2021/05/14 05:37:01;;;;;;;9.40;4.80;;;20.70;66.30;;;;;;5035031;28;20050;-90
2021/05/14 05:39:27;;;;;;;9.00;4.80;;;20.50;66.80;;;;;;5039189;28;20502;-90
2021/05/14 05:41:53;;;;;;;13.40;4.97;;;20.20;67.50;;;;;;5041222;28;20050;-89
2021/05/14 05:44:19;;;;;;;15.10;5.53;;;20.10;67.70;;;;;;5039496;28;20025;-91
2021/05/14 05:46:45;;;;;;;5.82;4.25;;;20.10;66.90;;;;;;5033360;28;20031;-90
2021/05/14 05:49:11;;;;;;;11.35;4.82;;;20.10;67.90;;;;;;5052324;28;20040;-91
2021/05/14 05:51:38;;;;;;;13.75;5.82;;;20.10;67.70;;;;;;5033458;28;20029;-92
2021/05/14 05:54:13;;;;;;;8.68;4.93;;;20.20;66.40;;;;;;5042958;28;20092;-92
2021/05/14 05:56:45;;;;;;;8.88;4.68;;;20.30;65.70;;;;;;5055107;28;20082;-91
2021/05/14 05:59:35;;;;;;;10.70;5.13;;;20.40;66.20;;;;;;5043217;28;20029;-91
2021/05/14 06:02:02;;;;;;;20.80;7.05;;;20.80;66.40;;;;;;5032929;28;20084;-90
2021/05/14 06:04:29;;;;;;;23.55;7.85;;;21.10;64.70;;;;;;5032736;28;20283;-91
2021/05/14 06:07:10;;;;;;;19.05;7.03;;;21.20;63.70;;;;;;5031451;28;20036;-91
2021/05/14 06:09:45;;;;;;;13.55;7.10;;;21.30;63.30;;;;;;5055170;28;20030;-89
2021/05/14 06:12:25;;;;;;;8.38;5.43;;;21.30;63.00;;;;;;5038013;28;20055;-93
2021/05/14 06:14:54;;;;;;;9.75;6.50;;;21.30;62.80;;;;;;5035870;28;20029;-91
2021/05/14 06:24:45;;;;;;;;;;;;;;;;;;;;;
2021/05/14 06:28:15;;;;;;;14.23;5.83;;;20.40;64.90;;;;;;5054061;28;20165;-92
2021/05/14 06:35:18;;;;;;;6.43;5.10;;;20.30;65.60;;;;;;5047829;28;20067;-93
2021/05/14 06:38:05;;;;;;;;;;;;;;;;;;;;;
2021/05/14 06:40:33;;;;;;;12.40;5.70;;;21.00;67.00;;;;;;4951104;28;20036;-91
2021/05/14 06:46:11;;;;;;;9.07;6.53;;;22.60;65.60;;;;;;4974060;28;20051;-90
2021/05/14 06:48:46;;;;;;;9.60;5.63;;;23.30;63.00;;;;;;4959409;28;20038;-90
2021/05/14 06:51:20;;;;;;;10.05;6.13;;;23.70;61.80;;;;;;4959993;28;20045;-92
2021/05/14 06:54:17;;;;;;;15.65;6.55;;;24.10;61.20;;;;;;4942135;29;20075;-91
2021/05/14 06:56:44;;;;;;;10.45;6.15;;;24.60;58.90;;;;;;4921036;29;20047;-92
2021/05/14 06:59:16;;;;;;;11.80;6.15;;;25.00;58.30;;;;;;4943456;29;20059;-90
2021/05/14 07:01:41;;;;;;;9.90;6.50;;;25.50;58.90;;;;;;4934842;29;20035;-90
2021/05/14 07:04:08;;;;;;;7.32;5.68;;;26.10;56.30;;;;;;4936406;29;20055;-92
2021/05/14 07:06:37;;;;;;;14.70;7.53;;;26.30;55.40;;;;;;4931409;29;20122;-90
2021/05/14 07:15:59;;;;;;;8.20;5.57;;;25.80;54.60;;;;;;5011878;28;20038;-91
2021/05/14 07:22:04;;;;;;;13.25;7.50;;;25.70;53.50;;;;;;4961759;28;20054;-92
2021/05/14 07:24:51;;;;;;;11.27;7.72;;;25.70;54.10;;;;;;5019350;28;20021;-89
2021/05/14 07:27:40;;;;;;;13.02;7.93;;;25.90;53.40;;;;;;5050489;23;20048;-87
2021/05/14 07:30:15;;;;;;;16.20;11.25;;;25.70;52.00;;;;;;4979989;28;20607;-89
2021/05/14 07:32:44;;;;;;;13.88;8.35;;;25.60;52.40;;;;;;5019615;28;20095;-88
2021/05/14 07:35:12;;;;;;;13.23;8.32;;;25.60;53.00;;;;;;5003665;28;20563;-87
2021/05/14 07:37:41;;;;;;;12.23;8.73;;;25.70;53.00;;;;;;5032682;28;20055;-89
2021/05/14 07:40:19;;;;;;;10.70;6.22;;;25.90;53.50;;;;;;5021112;28;20441;-89
2021/05/14 07:42:45;;;;;;;7.82;6.00;;;26.60;54.30;;;;;;5024590;28;20328;-87
2021/05/14 07:45:24;;;;;;;9.93;5.97;;;27.40;53.40;;;;;;5018833;28;20056;-89
2021/05/14 07:47:52;;;;;;;7.20;5.60;;;27.90;52.70;;;;;;5024291;28;20029;-88
2021/05/14 07:50:18;;;;;;;5.95;5.00;;;28.80;52.70;;;;;;5018610;28;20043;-89
2021/05/14 07:52:53;;;;;;;9.35;5.88;;;29.70;51.90;;;;;;5018727;28;20026;-88
2021/05/14 07:55:30;;;;;;;;;;;;;;;;;;;;;
2021/05/14 07:58:23;;;;;;;5.65;4.80;;;31.50;50.30;;;;;;5048142;28;20051;-88
2021/05/14 08:00:52;;;;;;;8.10;5.63;;;32.20;48.40;;;;;;5035521;28;20459;-88
2021/05/14 08:03:24;;;;;;;7.63;4.68;;;32.80;47.90;;;;;;5036658;28;20045;-88
2021/05/14 08:05:57;;;;;;;10.73;5.60;;;33.40;46.50;;;;;;5015846;28;20025;-88
2021/05/14 08:08:37;;;;;;;10.10;4.80;;;33.10;45.00;;;;;;5023759;28;20127;-89
2021/05/14 08:31:57;;;;;;;5.07;2.60;;;32.00;40.90;;;;;;5081804;27;20044;-89
2021/05/14 08:34:32;;;;;;;5.15;2.42;;;31.00;41.40;;;;;;5082347;28;20048;-89
2021/05/14 08:36:58;;;;;;;4.57;2.60;;;31.00;43.50;;;;;;5042948;28;20040;-90
2021/05/14 08:39:25;;;;;;;3.28;2.30;;;31.40;43.40;;;;;;5058981;28;20428;-90
2021/05/14 08:41:52;;;;;;;2.75;2.33;;;31.80;43.30;;;;;;5062960;28;20035;-89
2021/05/14 08:44:18;;;;;;;3.90;2.42;;;32.10;41.90;;;;;;5045789;28;20031;-89
2021/05/14 08:46:44;;;;;;;3.35;2.50;;;32.00;42.20;;;;;;5062129;28;20032;-89
2021/05/14 08:49:11;;;;;;;3.38;2.30;;;31.80;41.90;;;;;;5061570;28;20040;-89
2021/05/14 08:51:39;;;;;;;4.68;2.47;;;31.60;42.50;;;;;;5063492;28;20028;-90
2021/05/14 08:54:33;;;;;;;2.92;2.20;;;32.10;43.20;;;;;;5066495;28;20139;-90
2021/05/14 08:59:52;;;;;;;4.97;2.10;;;32.50;41.50;;;;;;5078785;28;20304;-88
2021/05/14 09:02:18;;;;;;;5.18;2.97;;;32.10;41.60;;;;;;5065491;28;20417;-89
2021/05/14 09:25:06;;;;;;;5.47;3.63;;;30.90;45.40;;;;;;5093366;22;20116;-91
2021/05/14 09:27:34;;;;;;;7.47;3.58;;;31.60;44.50;;;;;;5104430;28;20100;-91
2021/05/14 09:30:03;;;;;;;3.75;3.22;;;31.60;42.90;;;;;;5104945;27;20036;-91
2021/05/14 09:32:47;;;;;;;5.13;3.35;;;31.30;42.50;;;;;;5077887;28;20117;-93
2021/05/14 09:35:17;;;;;;;5.45;3.38;;;31.00;42.80;;;;;;5093818;22;20068;-91
2021/05/14 09:43:34;;;;;;;;;;;;;;;;;;;;;
2021/05/14 09:48:58;;;;;;;5.90;3.10;;;33.20;42.70;;;;;;5566809;22;20390;-92
2021/05/14 09:51:26;;;;;;;5.75;2.90;;;34.40;41.30;;;;;;5055787;28;20136;-90
2021/05/14 09:53:53;;;;;;;5.85;2.70;;;35.40;41.50;;;;;;5073278;28;20040;-90
2021/05/14 09:56:38;;;;;;;9.52;3.10;;;35.80;40.50;;;;;;5072018;28;20035;-89
2021/05/14 09:59:06;;;;;;;3.38;3.00;;;35.10;38.80;;;;;;5074491;28;20682;-90
2021/05/14 10:01:40;;;;;;;4.57;3.13;;;34.20;39.60;;;;;;5070459;28;20118;-90
2021/05/14 10:04:07;;;;;;;7.20;3.65;;;33.80;39.60;;;;;;5084281;28;20043;-90
2021/05/14 10:06:36;;;;;;;7.32;3.63;;;33.50;40.10;;;;;;5077400;28;20048;-90
2021/05/14 10:09:08;;;;;;;7.63;3.60;;;33.70;40.90;;;;;;5073835;28;20071;-90
2021/05/14 10:11:37;;;;;;;6.00;3.03;;;34.70;40.70;;;;;;5086028;28;20052;-88
2021/05/14 10:14:07;;;;;;;5.30;3.20;;;35.70;39.80;;;;;;5082360;28;20030;-90
2021/05/14 10:16:35;;;;;;;4.00;3.20;;;36.60;39.10;;;;;;5071853;28;20047;-90
2021/05/14 10:19:01;;;;;;;6.18;3.10;;;36.80;37.80;;;;;;5075131;28;20048;-90
2021/05/14 10:21:28;;;;;;;4.65;2.50;;;36.30;37.50;;;;;;5062269;28;20028;-92
2021/05/14 10:24:51;;;;;;;;;;;;;;;;;;;;;
2021/05/14 10:27:59;;;;;;;5.70;2.40;;;34.00;37.50;;;;;;5074615;28;20074;-93
2021/05/14 10:46:34;;;;;;;5.78;3.95;;;31.30;40.10;;;;;;5641966;22;20048;-92
2021/05/14 10:49:17;;;;;;;8.40;3.92;;;31.10;40.80;;;;;;5131870;22;20119;-92
2021/05/14 10:51:58;;;;;;;5.95;2.60;;;30.80;41.20;;;;;;5071319;28;20039;-92
2021/05/14 10:54:54;;;;;;;2.97;2.42;;;30.70;40.90;;;;;;5091643;28;20042;-93
2021/05/14 10:57:49;;;;;;;4.97;2.00;;;30.60;40.40;;;;;;5090943;28;20101;-92
2021/05/14 11:00:57;;;;;;;2.05;1.80;;;30.40;40.40;;;;;;5080029;28;20028;-91
2021/05/14 11:03:31;;;;;;;9.20;1.88;;;29.70;39.90;;;;;;5090217;28;20040;-91
2021/05/14 11:06:43;;;;;;;3.78;1.85;;;29.20;40.80;;;;;;5077548;28;20040;-92
2021/05/14 11:09:12;;;;;;;3.25;1.83;;;28.90;41.60;;;;;;5012892;28;20149;-92
2021/05/14 11:12:10;;;;;;;3.78;1.88;;;28.80;42.00;;;;;;5072381;28;20027;-91
2021/05/14 11:14:44;;;;;;;4.65;1.80;;;29.10;41.30;;;;;;5080205;28;20395;-91
2021/05/14 11:17:22;;;;;;;2.17;1.50;;;29.30;41.00;;;;;;5088390;28;20749;-90
2021/05/14 11:19:56;;;;;;;2.00;1.70;;;29.10;40.50;;;;;;5093436;28;20055;-89
2021/05/14 11:23:28;;;;;;;6.25;1.58;;;28.40;40.70;;;;;;5095025;28;20252;-91
2021/05/14 11:26:02;;;;;;;3.80;1.70;;;27.70;41.70;;;;;;5016797;28;20113;-91
2021/05/14 11:32:21;;;;;;;5.20;1.83;;;26.80;44.10;;;;;;5028431;28;20053;-90
2021/05/14 11:35:09;;;;;;;2.55;1.55;;;26.90;44.90;;;;;;5036078;27;20223;-92
2021/05/14 11:37:53;;;;;;;3.83;1.85;;;27.80;43.80;;;;;;5087242;28;20040;-89
2021/05/14 11:40:36;;;;;;;4.32;1.88;;;28.20;42.90;;;;;;5091664;28;20617;-91
2021/05/14 11:43:06;;;;;;;2.85;1.63;;;28.00;42.20;;;;;;5089764;28;20078;-90
2021/05/14 11:45:37;;;;;;;3.03;1.67;;;27.70;42.50;;;;;;5096429;28;20036;-89
2021/05/14 11:48:23;;;;;;;2.10;1.70;;;27.80;44.10;;;;;;5090888;27;20037;-91
2021/05/14 11:50:52;;;;;;;2.17;1.40;;;28.90;43.60;;;;;;5092822;28;20062;-90
2021/05/14 11:53:20;;;;;;;1.70;1.60;;;29.50;42.40;;;;;;5092753;22;20331;-91
2021/05/14 11:55:51;;;;;;;2.95;1.80;;;29.80;41.10;;;;;;5067030;28;20037;-88
2021/05/14 11:58:17;;;;;;;4.68;1.70;;;29.50;40.10;;;;;;5068067;28;20060;-90
2021/05/14 12:00:56;;;;;;;2.97;1.52;;;29.00;40.60;;;;;;5067749;28;20039;-89
2021/05/14 12:03:25;;;;;;;2.78;1.60;;;28.70;41.00;;;;;;5072595;28;20055;-92
2021/05/14 12:06:06;;;;;;;4.28;1.30;;;28.80;41.00;;;;;;5073953;28;20031;-89
2021/05/14 12:08:40;;;;;;;3.47;1.50;;;29.40;40.80;;;;;;5072176;28;20485;-89
2021/05/14 12:11:16;;;;;;;3.90;1.63;;;30.10;40.30;;;;;;5083789;28;20112;-92
2021/05/14 12:13:44;;;;;;;2.75;1.60;;;31.00;39.80;;;;;;5067362;28;20020;-90
2021/05/14 12:16:14;;;;;;;2.55;1.50;;;31.60;38.10;;;;;;5066859;28;20032;-92
2021/05/14 12:18:49;;;;;;;2.80;1.58;;;31.40;37.20;;;;;;5084703;28;20072;-90
2021/05/14 12:21:42;;;;;;;1.90;1.30;;;31.10;37.70;;;;;;5082460;28;20040;-91
2021/05/14 12:24:16;;;;;;;3.97;1.58;;;31.30;37.70;;;;;;5072604;28;20040;-91
2021/05/14 12:26:42;;;;;;;3.88;1.75;;;31.80;38.40;;;;;;5069679;28;20047;-92
2021/05/14 12:29:26;;;;;;;2.13;1.20;;;32.20;37.50;;;;;;5078133;28;20025;-91
2021/05/14 12:31:59;;;;;;;3.75;1.52;;;32.10;36.80;;;;;;5074594;28;20024;-92
2021/05/14 12:34:35;;;;;;;2.80;1.30;;;31.90;37.10;;;;;;5076303;28;20044;-92
2021/05/14 12:37:01;;;;;;;2.20;1.25;;;32.30;37.50;;;;;;5073860;28;20052;-92
2021/05/14 12:39:27;;;;;;;1.95;1.23;;;33.00;37.20;;;;;;5077251;28;20055;-92
2021/05/14 12:42:00;;;;;;;5.05;1.60;;;32.90;35.70;;;;;;5068177;28;20044;-92
2021/05/14 12:44:46;;;;;;;3.70;1.37;;;32.00;35.60;;;;;;5074334;28;20036;-92
2021/05/14 12:47:15;;;;;;;1.75;1.17;;;31.40;36.60;;;;;;5074562;28;20044;-92
2021/05/14 12:49:53;;;;;;;2.28;1.25;;;31.40;36.90;;;;;;5081584;28;20107;-91
2021/05/14 12:52:28;;;;;;;2.20;1.40;;;31.70;36.60;;;;;;5079611;28;20043;-91
2021/05/14 12:55:07;;;;;;;3.17;1.50;;;32.10;36.50;;;;;;5083052;28;20123;-90
2021/05/14 12:57:45;;;;;;;2.10;1.20;;;32.80;36.50;;;;;;5067309;28;20052;-91
2021/05/14 13:00:15;;;;;;;2.30;1.52;;;33.40;35.20;;;;;;5068661;28;20029;-90
2021/05/14 13:03:14;;;;;;;4.28;1.05;;;33.40;34.50;;;;;;5083624;28;20040;-93
2021/05/14 13:05:41;;;;;;;2.38;1.27;;;32.40;34.30;;;;;;5078626;28;20028;-92
2021/05/14 13:08:10;;;;;;;2.40;1.25;;;31.10;34.70;;;;;;5083728;28;20068;-91
2021/05/14 13:10:50;;;;;;;1.70;1.15;;;30.30;35.50;;;;;;5062242;28;20040;-91
2021/05/14 13:13:21;;;;;;;1.33;1.00;;;30.30;36.00;;;;;;5064428;28;20017;-91
2021/05/14 13:15:50;;;;;;;2.50;1.10;;;31.30;36.50;;;;;;5076005;28;20427;-93
2021/05/14 13:18:29;;;;;;;1.20;1.10;;;32.20;35.20;;;;;;5070505;28;20099;-91
2021/05/14 13:20:58;;;;;;;0.90;0.90;;;32.60;34.10;;;;;;5080131;28;20364;-93
2021/05/14 13:23:24;;;;;;;3.22;1.02;;;32.50;34.10;;;;;;5071542;28;20032;-92
2021/05/14 13:25:51;;;;;;;0.82;0.82;;;32.60;34.00;;;;;;5051786;28;20081;-92
2021/05/14 13:28:20;;;;;;;2.78;1.05;;;32.70;34.10;;;;;;5064973;28;20040;-93
2021/05/14 13:30:47;;;;;;;1.45;1.20;;;32.90;34.10;;;;;;5072302;28;20032;-91
2021/05/14 13:33:13;;;;;;;2.83;1.10;;;32.90;32.80;;;;;;5069312;28;20178;-91
2021/05/14 13:35:46;;;;;;;1.05;0.95;;;32.60;33.40;;;;;;5069631;28;20081;-92
2021/05/14 13:38:12;;;;;;;3.25;1.48;;;32.10;33.40;;;;;;5068872;28;20539;-91
2021/05/14 13:40:38;;;;;;;3.60;1.30;;;31.60;33.80;;;;;;5068579;28;20236;-92
2021/05/14 13:43:07;;;;;;;1.90;1.67;;;31.30;33.80;;;;;;5062700;28;20051;-92
2021/05/14 13:45:33;;;;;;;3.33;1.52;;;31.10;33.80;;;;;;5070396;28;20033;-91
2021/05/14 13:48:03;;;;;;;3.53;1.40;;;30.90;34.50;;;;;;5070164;28;20036;-92
2021/05/14 13:50:29;;;;;;;6.13;1.40;;;31.00;34.20;;;;;;5065671;28;20020;-91
2021/05/14 13:52:55;;;;;;;3.13;1.23;;;31.00;33.70;;;;;;5066418;28;20464;-90
2021/05/14 13:55:26;;;;;;;2.10;1.20;;;30.70;34.40;;;;;;5077341;28;20048;-90
2021/05/14 13:57:52;;;;;;;1.25;1.15;;;30.50;34.20;;;;;;5078919;28;20052;-91
2021/05/14 14:00:19;;;;;;;1.20;1.10;;;30.00;34.40;;;;;;5076713;28;20066;-91
2021/05/14 14:02:44;;;;;;;1.17;1.10;;;29.40;35.00;;;;;;5069957;28;20097;-92
2021/05/14 14:05:14;;;;;;;1.95;1.27;;;28.90;35.50;;;;;;5079440;28;20445;-91
2021/05/14 14:07:39;;;;;;;3.78;1.15;;;28.40;35.90;;;;;;5067010;28;20124;-92
2021/05/14 14:10:07;;;;;;;1.45;1.30;;;27.80;36.60;;;;;;5076975;28;20086;-92
2021/05/14 14:12:32;;;;;;;1.98;1.15;;;27.30;37.10;;;;;;5078136;28;20085;-91
2021/05/14 14:14:58;;;;;;;2.15;1.33;;;26.90;37.40;;;;;;5068265;28;20082;-92
2021/05/14 14:17:24;;;;;;;2.60;1.23;;;26.50;38.20;;;;;;5071004;28;20067;-92
2021/05/14 14:19:50;;;;;;;1.80;1.30;;;26.10;38.60;;;;;;5077896;28;20048;-91
2021/05/14 14:22:15;;;;;;;3.42;1.48;;;25.90;39.00;;;;;;5080949;28;20077;-92
2021/05/14 14:24:41;;;;;;;1.73;1.38;;;25.70;39.20;;;;;;5058823;28;20553;-92
2021/05/14 14:27:08;;;;;;;1.38;1.27;;;25.50;39.50;;;;;;5077462;28;20565;-92
2021/05/14 14:29:34;;;;;;;3.35;1.58;;;25.50;39.60;;;;;;5070074;28;20471;-92
2021/05/14 14:32:03;;;;;;;1.85;1.40;;;25.40;39.60;;;;;;5073935;28;20071;-91
2021/05/14 14:34:29;;;;;;;1.33;1.23;;;25.30;39.90;;;;;;5074445;28;20404;-92
2021/05/14 14:36:55;;;;;;;2.28;1.30;;;25.30;39.80;;;;;;5072489;28;20035;-91
2021/05/14 14:39:23;;;;;;;4.28;1.50;;;25.20;39.80;;;;;;5073034;28;20036;-92
2021/05/14 14:41:49;;;;;;;1.67;1.33;;;25.20;40.20;;;;;;5066739;28;20082;-93
2021/05/14 14:44:15;;;;;;;2.50;1.40;;;25.10;40.20;;;;;;5074839;28;20089;-91
2021/05/14 14:46:41;;;;;;;1.85;1.15;;;25.00;40.40;;;;;;5073821;28;20048;-91
2021/05/14 14:49:07;;;;;;;4.32;1.50;;;24.90;40.40;;;;;;5060503;28;20064;-91
2021/05/14 14:51:32;;;;;;;3.53;1.20;;;24.90;40.30;;;;;;5064355;28;20040;-92
2021/05/14 14:53:58;;;;;;;4.50;1.30;;;24.80;40.00;;;;;;5063994;28;20045;-91